Flight Track Log - Related Links

Times and Time Zones

All times are in EDT time to prevent confusion due to time zone crossing. See the DAL1283 flight status page for this flight to view local times or setup timezone preferences in your user account.

Time Position Orientation Groundspeed Altitude Reporting Facility
EDT Latitude Longitude Course Direction KTS MPH feet Rate Location/Type
Fri 06:50:24 PM 44.9000 -93.3000 140° Southeast 214 246 3,600  Level Minneapolis TRACON
Fri 06:51:34 PM 44.8811 -93.4122 257° West 262 302 6,800 1,636 Climbing Minneapolis Center
Fri 06:52:00 PM 44.6230 -92.8305 141° Southeast  Level Estimated
Fri 06:52:36 PM 44.8167 -93.4556 206° Southwest 281 323 7,200  Level Minneapolis Center
Fri 06:53:00 PM 44.5363 -92.7008 137° Southeast  Level Estimated
Fri 06:53:38 PM 44.7408 -93.4333 168° South 297 342 10,800  Level Minneapolis Center
Fri 06:54:00 PM 44.4495 -92.5715 120° Southeast  Level Estimated
Fri 06:54:41 PM 44.6706 -93.3114 129° Southeast 373 429 13,000  Level Minneapolis Center
Fri 06:55:00 PM 44.3531 -92.4567 140° Southeast  Level FlightAware Approximate
Fri 06:55:43 PM 44.6189 -93.1744 118° Southeast 410 472 15,700  Level Minneapolis Center
Fri 06:56:45 PM 44.5603 -93.0306 120° Southeast 427 491 18,400 2,516 Climbing Minneapolis Center
Fri 06:57:47 PM 44.5000 -92.8833 120° Southeast 438 504 20,900 2,516 Climbing Minneapolis Center
Fri 06:58:49 PM 44.4236 -92.6961 120° Southeast 461 531 23,600 2,371 Climbing Minneapolis Center
Fri 06:59:51 PM 44.3592 -92.5372 120° Southeast 469 540 25,800 2,274 Climbing Minneapolis Center
Fri 07:00:53 PM 44.2944 -92.3808 120° Southeast 468 539 28,300 2,371 Climbing Minneapolis Center
Fri 07:01:55 PM 44.2297 -92.2264 120° Southeast 464 534 30,700 1,984 Climbing Minneapolis Center
Fri 07:02:57 PM 44.1683 -92.0767 120° Southeast 450 518 32,400 1,113 Climbing Minneapolis Center
Fri 07:03:59 PM 44.0917 -91.8933 120° Southeast 456 525 33,000 290 Climbing Minneapolis Center
Fri 07:05:01 PM 44.0272 -91.7400 120° Southeast 460 529 33,000  Level Minneapolis Center
Fri 07:06:03 PM 43.9647 -91.5953 121° Southeast 462 532 33,000  Level Minneapolis Center
Fri 07:07:05 PM 43.8975 -91.4461 122° Southeast 461 531 33,000  Level Minneapolis Center
Fri 07:08:07 PM 43.8064 -91.3208 135° Southeast 462 532 33,000  Level Minneapolis Center
Fri 07:09:09 PM 43.6983 -91.1703 135° Southeast 461 531 33,000  Level Minneapolis Center
Fri 07:10:11 PM 43.6075 -91.0436 135° Southeast 465 535 33,000  Level Minneapolis Center
Fri 07:11:14 PM 43.5181 -90.9178 134° Southeast 464 534 33,000  Level Minneapolis Center
Fri 07:12:16 PM 43.4281 -90.7936 135° Southeast 461 531 33,000  Level Minneapolis Center
Fri 07:13:18 PM 43.3378 -90.6697 135° Southeast 461 531 33,000  Level Minneapolis Center
Fri 07:13:59 PM 43.2658 -90.5719 135° Southeast 463 533 33,000  Level Chicago Center
Fri 07:15:01 PM 43.1756 -90.4481 135° Southeast 462 532 33,000  Level Chicago Center
Fri 07:16:03 PM 43.0828 -90.3242 136° Southeast 466 536 33,000  Level Chicago Center
Fri 07:17:05 PM 42.9917 -90.2008 135° Southeast 464 534 33,000  Level Chicago Center
Fri 07:18:07 PM 42.8825 -90.0522 135° Southeast 464 534 33,000  Level Chicago Center
Fri 07:19:09 PM 42.7892 -89.9278 136° Southeast 471 542 33,000  Level Chicago Center
Fri 07:20:11 PM 42.6908 -89.8006 136° Southeast 473 544 33,000  Level Chicago Center
Fri 07:21:13 PM 42.5975 -89.6767 136° Southeast 472 543 33,000  Level Chicago Center
Fri 07:22:15 PM 42.5031 -89.5517 136° Southeast 475 547 33,000  Level Chicago Center
Fri 07:23:17 PM 42.4067 -89.4267 136° Southeast 481 554 33,000  Level Chicago Center
Fri 07:24:19 PM 42.2944 -89.2786 136° Southeast 485 558 33,000  Level Chicago Center
Fri 07:25:21 PM 42.1978 -89.1536 136° Southeast 484 557 33,000  Level Chicago Center
Fri 07:26:23 PM 42.1014 -89.0278 136° Southeast 484 557 33,000  Level Chicago Center
Fri 07:27:24 PM 41.9958 -88.8928 136° Southeast 487 560 33,000  Level Chicago Center
Fri 07:28:26 PM 41.8994 -88.7683 136° Southeast 484 557 33,000  Level Chicago Center
Fri 07:29:28 PM 41.8025 -88.6442 136° Southeast 484 557 33,000  Level Chicago Center
Fri 07:30:30 PM 41.7047 -88.5194 136° Southeast 489 563 33,000 -581 Level Chicago Center
Fri 07:31:32 PM 41.6067 -88.3950 136° Southeast 490 564 31,800 -1,403 Descending Chicago Center
Fri 07:32:34 PM 41.4781 -88.2636 143° Southeast 490 564 30,100 -1,355 Descending Chicago Center
Fri 07:33:36 PM 41.3636 -88.1764 150° Southeast 491 565 29,000 -532 Descending Chicago Center
Fri 07:34:38 PM 41.2503 -88.0839 148° Southeast 494 568 29,000  Level Chicago Center
Fri 07:35:40 PM 41.1114 -87.9731 149° Southeast 493 567 29,000 -48 Level Chicago Center
Fri 07:36:42 PM 40.9944 -87.8819 150° Southeast 494 568 28,900 -871 Descending Chicago Center
Fri 07:37:44 PM 40.8783 -87.7892 149° Southeast 491 565 27,200 -1,355 Descending Chicago Center
Fri 07:38:46 PM 40.7619 -87.6986 149° Southeast 490 564 26,100 -1,113 Descending Chicago Center
Fri 07:39:48 PM 40.6472 -87.6114 150° Southeast 480 552 24,900 -1,790 Descending Chicago Center
Fri 07:40:50 PM 40.5372 -87.5294 150° Southeast 460 529 22,400 -2,613 Descending Chicago Center
Fri 07:41:52 PM 40.4242 -87.4186 143° Southeast 444 511 19,500 -2,274 Descending Chicago Center
Fri 07:42:54 PM 40.3625 -87.2864 121° Southeast 427 491 17,700 -1,645 Descending Chicago Center
Fri 07:43:56 PM 40.3014 -87.1603 122° Southeast 409 471 16,100 -1,742 Descending Chicago Center
Fri 07:44:58 PM 40.2436 -87.0389 122° Southeast 395 455 14,100 -1,500 Descending Chicago Center
Fri 07:46:00 PM 40.1872 -86.9236 123° Southeast 377 434 13,000 -1,113 Descending Chicago Center
Fri 07:47:02 PM 40.1125 -86.7986 128° Southeast 374 430 11,800 -1,289 Descending Chicago Center
Fri 07:48:01 PM 40.0567 -86.7192 133° Southeast 360 414 10,400 -900 Descending Indianapolis Center
Fri 07:49:02 PM 39.9939 -86.6267 132° Southeast 295 339 10,000 -537 Descending Indianapolis Center
Fri 07:50:04 PM 39.9433 -86.5531 132° Southeast 275 316 9,300 -1,306 Descending Indianapolis Center
Fri 07:51:06 PM 39.8933 -86.4811 132° Southeast 268 308 7,300 -1,122 Descending Indianapolis Center
Fri 07:52:07 PM 39.8486 -86.4053 128° Southeast 271 312 7,000 -146 Descending Indianapolis Center
Fri 07:53:09 PM 39.8553 -86.3078 85° East 268 308 7,000 -780 Level Indianapolis Center
Fri 07:54:10 PM 39.8539 -86.2319 91° East 219 252 5,400 -1,707 Descending Indianapolis Center
Fri 07:55:12 PM 39.8161 -86.1922 141° Southeast 185 213 3,500 -1,839 Descending Indianapolis Center

Login

Don't have an account? Register now (free) for customized features, flight alerts, and more!